sensor_id;sensor_type;location;lat;lon;timestamp;pressure;altitude;pressure_sealevel;temperature;humidity
79362;BME280;68830;47.566;19.012;2023-05-10T00:00:21;100189.56;;;11.90;62.82
79362;BME280;68830;47.566;19.012;2023-05-10T00:03:24;100194.97;;;11.81;62.95
79362;BME280;68830;47.566;19.012;2023-05-10T00:06:26;100181.19;;;11.67;63.86
79362;BME280;68830;47.566;19.012;2023-05-10T00:09:30;100196.97;;;11.69;63.82
79362;BME280;68830;47.566;19.012;2023-05-10T00:12:32;100187.47;;;11.66;63.00
79362;BME280;68830;47.566;19.012;2023-05-10T00:15:34;100180.59;;;11.74;62.37
79362;BME280;68830;47.566;19.012;2023-05-10T00:18:36;100187.03;;;11.71;63.28
79362;BME280;68830;47.566;19.012;2023-05-10T00:21:38;100168.97;;;11.75;62.57
79362;BME280;68830;47.566;19.012;2023-05-10T00:24:41;100179.22;;;11.70;64.17
79362;BME280;68830;47.566;19.012;2023-05-10T00:27:43;100171.78;;;11.73;62.70
79362;BME280;68830;47.566;19.012;2023-05-10T00:30:45;100161.00;;;11.57;64.28
79362;BME280;68830;47.566;19.012;2023-05-10T00:33:46;100175.56;;;11.53;64.87
79362;BME280;68830;47.566;19.012;2023-05-10T00:36:48;100176.47;;;11.61;64.79
79362;BME280;68830;47.566;19.012;2023-05-10T00:39:52;100170.97;;;12.08;65.84
79362;BME280;68830;47.566;19.012;2023-05-10T00:42:54;100169.00;;;12.28;65.53
79362;BME280;68830;47.566;19.012;2023-05-10T00:45:57;100155.78;;;12.36;65.72
79362;BME280;68830;47.566;19.012;2023-05-10T00:48:59;100170.94;;;12.44;65.39
79362;BME280;68830;47.566;19.012;2023-05-10T00:52:01;100165.88;;;12.33;65.25
79362;BME280;68830;47.566;19.012;2023-05-10T00:55:07;100174.06;;;12.21;65.94
79362;BME280;68830;47.566;19.012;2023-05-10T00:58:11;100158.72;;;11.89;66.76
79362;BME280;68830;47.566;19.012;2023-05-10T01:01:14;100167.72;;;11.79;66.93
79362;BME280;68830;47.566;19.012;2023-05-10T01:04:16;100172.97;;;11.61;67.93
79362;BME280;68830;47.566;19.012;2023-05-10T01:07:19;100150.97;;;11.33;68.98
79362;BME280;68830;47.566;19.012;2023-05-10T01:10:22;100069.41;;;10.72;68.05
79362;BME280;68830;47.566;19.012;2023-05-10T01:13:30;100172.91;;;11.25;68.82
79362;BME280;68830;47.566;19.012;2023-05-10T01:16:36;100168.91;;;11.21;69.45
79362;BME280;68830;47.566;19.012;2023-05-10T01:19:39;100169.19;;;11.18;69.43
79362;BME280;68830;47.566;19.012;2023-05-10T01:23:04;100167.56;;;11.07;69.45
79362;BME280;68830;47.566;19.012;2023-05-10T01:26:27;100167.03;;;11.04;70.05
79362;BME280;68830;47.566;19.012;2023-05-10T01:33:26;100164.25;;;10.96;70.63
79362;BME280;68830;47.566;19.012;2023-05-10T01:36:32;100164.66;;;11.01;70.87
79362;BME280;68830;47.566;19.012;2023-05-10T01:39:42;100166.53;;;10.91;71.85
79362;BME280;68830;47.566;19.012;2023-05-10T01:42:50;100160.13;;;10.84;71.63
79362;BME280;68830;47.566;19.012;2023-05-10T01:46:00;100159.81;;;10.87;71.45
79362;BME280;68830;47.566;19.012;2023-05-10T01:49:09;100155.63;;;10.94;71.30
79362;BME280;68830;47.566;19.012;2023-05-10T01:52:16;100164.25;;;10.96;71.59
79362;BME280;68830;47.566;19.012;2023-05-10T01:55:21;100160.09;;;10.93;71.66
79362;BME280;68830;47.566;19.012;2023-05-10T01:58:32;100126.97;;;10.80;71.91
79362;BME280;68830;47.566;19.012;2023-05-10T02:01:36;100153.06;;;11.02;71.99
79362;BME280;68830;47.566;19.012;2023-05-10T02:04:41;100162.72;;;11.03;72.32
79362;BME280;68830;47.566;19.012;2023-05-10T02:07:44;100156.44;;;11.04;72.35
79362;BME280;68830;47.566;19.012;2023-05-10T02:10:49;100146.38;;;11.07;72.02
79362;BME280;68830;47.566;19.012;2023-05-10T02:13:51;100144.03;;;11.04;72.13
79362;BME280;68830;47.566;19.012;2023-05-10T02:16:56;100114.66;;;10.88;72.35
79362;BME280;68830;47.566;19.012;2023-05-10T02:20:02;100144.84;;;11.05;72.78
79362;BME280;68830;47.566;19.012;2023-05-10T02:23:07;100147.66;;;11.03;72.88
79362;BME280;68830;47.566;19.012;2023-05-10T02:26:11;100136.63;;;10.98;72.32
79362;BME280;68830;47.566;19.012;2023-05-10T02:29:15;100140.53;;;11.04;72.14
79362;BME280;68830;47.566;19.012;2023-05-10T02:32:18;100140.91;;;11.09;72.11
79362;BME280;68830;47.566;19.012;2023-05-10T02:35:23;100139.47;;;11.15;72.40
79362;BME280;68830;47.566;19.012;2023-05-10T02:38:26;100127.22;;;11.14;72.45
79362;BME280;68830;47.566;19.012;2023-05-10T02:41:30;100145.56;;;11.25;72.10
79362;BME280;68830;47.566;19.012;2023-05-10T02:44:34;100147.78;;;11.29;72.42
79362;BME280;68830;47.566;19.012;2023-05-10T02:47:39;100125.66;;;11.21;72.36
79362;BME280;68830;47.566;19.012;2023-05-10T02:50:43;100119.06;;;11.25;71.92
79362;BME280;68830;47.566;19.012;2023-05-10T02:53:46;100139.31;;;11.61;70.18
79362;BME280;68830;47.566;19.012;2023-05-10T02:56:51;100111.53;;;11.65;69.28
79362;BME280;68830;47.566;19.012;2023-05-10T02:59:55;100118.75;;;11.91;68.18
79362;BME280;68830;47.566;19.012;2023-05-10T03:02:58;100121.25;;;11.92;67.91
79362;BME280;68830;47.566;19.012;2023-05-10T03:06:01;100126.63;;;12.01;68.16
79362;BME280;68830;47.566;19.012;2023-05-10T03:09:04;100102.59;;;12.02;67.42
79362;BME280;68830;47.566;19.012;2023-05-10T03:12:11;100130.44;;;12.24;67.37
79362;BME280;68830;47.566;19.012;2023-05-10T03:15:22;100130.84;;;12.29;67.04
79362;BME280;68830;47.566;19.012;2023-05-10T03:18:31;100118.56;;;12.28;66.51
79362;BME280;68830;47.566;19.012;2023-05-10T03:21:38;100137.56;;;12.41;65.52
79362;BME280;68830;47.566;19.012;2023-05-10T03:24:45;100136.47;;;12.52;64.50
79362;BME280;68830;47.566;19.012;2023-05-10T03:27:48;100125.47;;;12.47;64.59
79362;BME280;68830;47.566;19.012;2023-05-10T03:30:52;100113.66;;;12.41;63.96
79362;BME280;68830;47.566;19.012;2023-05-10T03:33:54;100118.81;;;12.43;64.87
79362;BME280;68830;47.566;19.012;2023-05-10T03:36:57;100128.97;;;12.47;64.69
79362;BME280;68830;47.566;19.012;2023-05-10T03:40:00;100121.09;;;12.38;64.27
79362;BME280;68830;47.566;19.012;2023-05-10T03:43:02;100125.53;;;12.29;64.52
79362;BME280;68830;47.566;19.012;2023-05-10T03:46:05;100088.84;;;12.07;63.73
79362;BME280;68830;47.566;19.012;2023-05-10T03:49:07;100129.84;;;12.30;64.45
79362;BME280;68830;47.566;19.012;2023-05-10T03:52:11;100117.50;;;12.21;63.87
79362;BME280;68830;47.566;19.012;2023-05-10T03:55:13;100131.16;;;12.26;64.44
79362;BME280;68830;47.566;19.012;2023-05-10T03:58:15;100134.66;;;12.26;64.49
79362;BME280;68830;47.566;19.012;2023-05-10T04:01:17;100116.28;;;12.15;64.43
79362;BME280;68830;47.566;19.012;2023-05-10T04:04:19;100123.19;;;12.26;63.97
79362;BME280;68830;47.566;19.012;2023-05-10T04:07:24;100127.44;;;12.19;64.88
79362;BME280;68830;47.566;19.012;2023-05-10T04:10:26;100132.13;;;12.25;64.07
79362;BME280;68830;47.566;19.012;2023-05-10T04:13:28;100123.19;;;12.26;63.64
79362;BME280;68830;47.566;19.012;2023-05-10T04:16:30;100124.03;;;12.26;64.81
79362;BME280;68830;47.566;19.012;2023-05-10T04:19:33;100128.69;;;12.33;63.90
79362;BME280;68830;47.566;19.012;2023-05-10T04:22:36;100131.56;;;12.39;63.93
79362;BME280;68830;47.566;19.012;2023-05-10T04:25:38;100133.28;;;12.48;64.09
79362;BME280;68830;47.566;19.012;2023-05-10T04:28:40;100131.22;;;12.60;63.97
79362;BME280;68830;47.566;19.012;2023-05-10T04:31:42;100128.91;;;12.65;62.63
79362;BME280;68830;47.566;19.012;2023-05-10T04:34:44;100134.47;;;12.80;63.07
79362;BME280;68830;47.566;19.012;2023-05-10T04:37:48;100119.09;;;12.66;62.73
79362;BME280;68830;47.566;19.012;2023-05-10T04:40:49;100141.94;;;12.84;61.68
79362;BME280;68830;47.566;19.012;2023-05-10T04:43:51;100140.19;;;12.93;62.75
79362;BME280;68830;47.566;19.012;2023-05-10T04:46:53;100125.38;;;12.91;62.16
79362;BME280;68830;47.566;19.012;2023-05-10T04:49:55;100142.41;;;13.14;61.30
79362;BME280;68830;47.566;19.012;2023-05-10T04:52:59;100134.50;;;13.22;61.86
79362;BME280;68830;47.566;19.012;2023-05-10T04:56:00;100141.22;;;13.34;61.42
79362;BME280;68830;47.566;19.012;2023-05-10T04:59:03;100130.41;;;13.44;61.14
79362;BME280;68830;47.566;19.012;2023-05-10T05:02:05;100130.91;;;13.48;60.55
79362;BME280;68830;47.566;19.012;2023-05-10T05:05:07;100127.13;;;13.58;60.43
79362;BME280;68830;47.566;19.012;2023-05-10T05:08:11;100122.28;;;13.62;59.77
79362;BME280;68830;47.566;19.012;2023-05-10T05:11:13;100130.31;;;13.70;59.31
79362;BME280;68830;47.566;19.012;2023-05-10T05:14:15;100140.28;;;13.76;59.34
79362;BME280;68830;47.566;19.012;2023-05-10T05:17:17;100139.63;;;13.82;59.58
79362;BME280;68830;47.566;19.012;2023-05-10T05:20:19;100139.13;;;13.87;59.34
79362;BME280;68830;47.566;19.012;2023-05-10T05:23:24;100134.66;;;13.95;58.33
79362;BME280;68830;47.566;19.012;2023-05-10T05:26:26;100122.66;;;13.91;59.02
79362;BME280;68830;47.566;19.012;2023-05-10T05:29:28;100123.84;;;13.97;59.39
79362;BME280;68830;47.566;19.012;2023-05-10T05:32:30;100148.97;;;14.11;58.50
79362;BME280;68830;47.566;19.012;2023-05-10T05:35:33;100152.63;;;14.01;58.17
79362;BME280;68830;47.566;19.012;2023-05-10T05:38:36;100140.94;;;13.78;58.44
79362;BME280;68830;47.566;19.012;2023-05-10T05:41:38;100148.28;;;13.76;59.12
79362;BME280;68830;47.566;19.012;2023-05-10T05:44:40;100168.75;;;13.84;59.63
79362;BME280;68830;47.566;19.012;2023-05-10T05:47:42;100159.78;;;13.85;59.96
79362;BME280;68830;47.566;19.012;2023-05-10T05:50:44;100156.09;;;13.86;58.43
79362;BME280;68830;47.566;19.012;2023-05-10T05:53:48;100167.59;;;13.86;59.21
79362;BME280;68830;47.566;19.012;2023-05-10T05:56:50;100177.06;;;13.89;58.97
79362;BME280;68830;47.566;19.012;2023-05-10T05:59:52;100157.94;;;13.85;58.96
79362;BME280;68830;47.566;19.012;2023-05-10T06:02:54;100114.81;;;13.07;61.19
79362;BME280;68830;47.566;19.012;2023-05-10T06:05:57;100115.63;;;12.65;63.59
79362;BME280;68830;47.566;19.012;2023-05-10T06:09:00;100106.53;;;12.76;63.34
79362;BME280;68830;47.566;19.012;2023-05-10T06:12:02;100105.56;;;12.77;63.33
79362;BME280;68830;47.566;19.012;2023-05-10T06:15:05;100091.22;;;13.04;63.19
79362;BME280;68830;47.566;19.012;2023-05-10T06:18:07;100101.81;;;13.46;60.69
79362;BME280;68830;47.566;19.012;2023-05-10T06:21:09;100112.09;;;13.25;61.49
79362;BME280;68830;47.566;19.012;2023-05-10T06:24:12;100107.16;;;13.54;61.34
79362;BME280;68830;47.566;19.012;2023-05-10T06:27:14;100075.91;;;13.48;60.95
79362;BME280;68830;47.566;19.012;2023-05-10T06:30:16;100125.66;;;13.72;60.29
79362;BME280;68830;47.566;19.012;2023-05-10T06:33:18;100177.09;;;13.97;59.96
79362;BME280;68830;47.566;19.012;2023-05-10T06:36:20;100178.75;;;14.22;58.54
79362;BME280;68830;47.566;19.012;2023-05-10T06:39:23;100181.47;;;14.47;57.92
79362;BME280;68830;47.566;19.012;2023-05-10T06:42:26;100111.75;;;13.28;61.27
79362;BME280;68830;47.566;19.012;2023-05-10T06:45:28;100115.59;;;13.33;61.82
79362;BME280;68830;47.566;19.012;2023-05-10T06:48:30;100151.69;;;13.44;62.88
79362;BME280;68830;47.566;19.012;2023-05-10T06:51:32;100148.47;;;13.83;60.99
79362;BME280;68830;47.566;19.012;2023-05-10T06:54:36;100147.13;;;14.52;60.22
79362;BME280;68830;47.566;19.012;2023-05-10T06:57:38;100135.81;;;14.42;59.46
79362;BME280;68830;47.566;19.012;2023-05-10T07:00:40;100149.44;;;14.55;59.01
79362;BME280;68830;47.566;19.012;2023-05-10T07:03:45;100157.63;;;14.53;59.11
79362;BME280;68830;47.566;19.012;2023-05-10T07:06:46;100160.41;;;14.76;58.41
79362;BME280;68830;47.566;19.012;2023-05-10T07:09:50;100156.75;;;14.69;59.21
79362;BME280;68830;47.566;19.012;2023-05-10T07:12:52;100159.88;;;14.89;58.38
79362;BME280;68830;47.566;19.012;2023-05-10T07:15:54;100159.00;;;15.05;58.76
79362;BME280;68830;47.566;19.012;2023-05-10T07:18:56;100158.34;;;14.94;57.85
79362;BME280;68830;47.566;19.012;2023-05-10T07:21:59;100149.34;;;14.95;58.75
79362;BME280;68830;47.566;19.012;2023-05-10T07:25:02;100151.19;;;14.95;58.72
79362;BME280;68830;47.566;19.012;2023-05-10T07:28:05;100150.28;;;14.63;59.48
79362;BME280;68830;47.566;19.012;2023-05-10T07:31:07;100153.19;;;15.01;58.76
79362;BME280;68830;47.566;19.012;2023-05-10T07:34:09;100147.97;;;15.08;59.08
79362;BME280;68830;47.566;19.012;2023-05-10T07:37:12;100152.44;;;15.15;59.62
79362;BME280;68830;47.566;19.012;2023-05-10T07:40:15;100144.41;;;15.23;56.91
79362;BME280;68830;47.566;19.012;2023-05-10T07:43:18;100138.44;;;15.13;56.74
79362;BME280;68830;47.566;19.012;2023-05-10T07:46:20;100146.28;;;15.15;57.32
79362;BME280;68830;47.566;19.012;2023-05-10T07:49:22;100138.19;;;15.31;57.25
79362;BME280;68830;47.566;19.012;2023-05-10T07:52:25;100143.88;;;15.28;56.67
79362;BME280;68830;47.566;19.012;2023-05-10T07:55:29;100129.13;;;15.17;57.84
79362;BME280;68830;47.566;19.012;2023-05-10T07:58:31;100143.84;;;15.36;57.67
79362;BME280;68830;47.566;19.012;2023-05-10T08:01:34;100133.09;;;15.52;56.87
79362;BME280;68830;47.566;19.012;2023-05-10T08:04:36;100113.75;;;15.19;57.23
79362;BME280;68830;47.566;19.012;2023-05-10T08:07:39;100136.09;;;15.18;57.24
79362;BME280;68830;47.566;19.012;2023-05-10T08:10:42;100146.25;;;15.23;58.50
79362;BME280;68830;47.566;19.012;2023-05-10T08:13:45;100153.25;;;15.24;57.31
79362;BME280;68830;47.566;19.012;2023-05-10T08:16:47;100151.88;;;15.28;58.08
79362;BME280;68830;47.566;19.012;2023-05-10T08:19:49;100147.19;;;15.30;58.21
79362;BME280;68830;47.566;19.012;2023-05-10T08:22:51;100137.72;;;15.28;58.23
79362;BME280;68830;47.566;19.012;2023-05-10T08:25:54;100148.09;;;15.14;57.55
79362;BME280;68830;47.566;19.012;2023-05-10T08:28:57;100091.34;;;15.29;57.05
79362;BME280;68830;47.566;19.012;2023-05-10T08:31:58;100145.25;;;15.63;55.82
79362;BME280;68830;47.566;19.012;2023-05-10T08:35:03;100135.22;;;15.65;56.29
79362;BME280;68830;47.566;19.012;2023-05-10T08:38:05;100140.47;;;15.73;55.44
79362;BME280;68830;47.566;19.012;2023-05-10T08:41:10;100134.72;;;16.45;54.12
79362;BME280;68830;47.566;19.012;2023-05-10T08:44:12;100134.28;;;16.19;53.50
79362;BME280;68830;47.566;19.012;2023-05-10T08:47:16;100126.72;;;16.45;52.70
79362;BME280;68830;47.566;19.012;2023-05-10T08:50:19;100132.03;;;16.30;53.95
79362;BME280;68830;47.566;19.012;2023-05-10T08:53:23;100129.50;;;15.91;54.35
79362;BME280;68830;47.566;19.012;2023-05-10T08:56:29;100136.72;;;16.28;53.69
79362;BME280;68830;47.566;19.012;2023-05-10T08:59:31;100142.03;;;16.13;54.21
79362;BME280;68830;47.566;19.012;2023-05-10T09:02:36;100132.47;;;16.34;54.20
79362;BME280;68830;47.566;19.012;2023-05-10T09:05:38;100141.78;;;16.38;51.16
79362;BME280;68830;47.566;19.012;2023-05-10T09:08:41;100134.38;;;16.10;53.22
79362;BME280;68830;47.566;19.012;2023-05-10T09:11:45;100136.00;;;16.49;53.12
79362;BME280;68830;47.566;19.012;2023-05-10T09:14:49;100134.97;;;16.35;52.46
79362;BME280;68830;47.566;19.012;2023-05-10T09:17:52;100140.06;;;16.45;52.16
79362;BME280;68830;47.566;19.012;2023-05-10T09:20:54;100137.09;;;16.25;52.09
79362;BME280;68830;47.566;19.012;2023-05-10T09:23:57;100135.66;;;16.14;53.03
79362;BME280;68830;47.566;19.012;2023-05-10T09:27:01;100136.69;;;16.13;51.17
79362;BME280;68830;47.566;19.012;2023-05-10T09:30:05;100127.44;;;16.54;50.64
79362;BME280;68830;47.566;19.012;2023-05-10T09:33:08;100127.63;;;16.52;51.50
79362;BME280;68830;47.566;19.012;2023-05-10T09:36:10;100122.03;;;17.57;51.15
79362;BME280;68830;47.566;19.012;2023-05-10T09:39:12;100135.72;;;17.83;49.94
79362;BME280;68830;47.566;19.012;2023-05-10T09:42:18;100116.66;;;17.36;49.79
79362;BME280;68830;47.566;19.012;2023-05-10T09:45:20;100119.53;;;17.55;49.59
79362;BME280;68830;47.566;19.012;2023-05-10T09:48:24;100111.81;;;17.82;45.65
79362;BME280;68830;47.566;19.012;2023-05-10T09:51:26;100094.00;;;17.96;47.94
79362;BME280;68830;47.566;19.012;2023-05-10T09:54:31;100119.91;;;17.52;47.98
79362;BME280;68830;47.566;19.012;2023-05-10T09:57:34;100123.53;;;17.45;48.98
79362;BME280;68830;47.566;19.012;2023-05-10T10:00:38;100125.34;;;17.08;47.78
79362;BME280;68830;47.566;19.012;2023-05-10T10:03:42;100112.19;;;16.92;49.59
79362;BME280;68830;47.566;19.012;2023-05-10T10:06:44;100103.38;;;17.13;49.57
79362;BME280;68830;47.566;19.012;2023-05-10T10:09:46;100107.16;;;17.33;49.17
79362;BME280;68830;47.566;19.012;2023-05-10T10:12:50;100103.69;;;17.75;48.42
79362;BME280;68830;47.566;19.012;2023-05-10T10:15:54;100105.00;;;17.79;47.67
79362;BME280;68830;47.566;19.012;2023-05-10T10:18:56;100090.22;;;17.47;50.04
79362;BME280;68830;47.566;19.012;2023-05-10T10:21:58;100091.97;;;17.04;48.78
79362;BME280;68830;47.566;19.012;2023-05-10T10:25:01;100102.03;;;17.02;49.62
79362;BME280;68830;47.566;19.012;2023-05-10T10:28:19;100087.63;;;17.18;49.51
79362;BME280;68830;47.566;19.012;2023-05-10T10:31:27;100085.22;;;17.08;49.37
79362;BME280;68830;47.566;19.012;2023-05-10T10:34:32;100075.59;;;17.50;48.17
79362;BME280;68830;47.566;19.012;2023-05-10T10:37:43;100073.44;;;17.39;48.10
79362;BME280;68830;47.566;19.012;2023-05-10T10:40:45;100089.03;;;17.35;46.71
79362;BME280;68830;47.566;19.012;2023-05-10T10:43:49;100095.22;;;17.72;47.17
79362;BME280;68830;47.566;19.012;2023-05-10T10:47:02;100069.34;;;17.43;47.59
79362;BME280;68830;47.566;19.012;2023-05-10T10:50:06;100073.22;;;17.40;48.55
79362;BME280;68830;47.566;19.012;2023-05-10T10:53:10;100060.47;;;17.78;46.13
79362;BME280;68830;47.566;19.012;2023-05-10T10:56:13;100070.72;;;17.75;46.33
79362;BME280;68830;47.566;19.012;2023-05-10T10:59:27;100058.03;;;17.62;46.49
79362;BME280;68830;47.566;19.012;2023-05-10T11:02:34;100053.63;;;17.76;47.86
79362;BME280;68830;47.566;19.012;2023-05-10T11:05:39;100060.78;;;18.18;43.46
79362;BME280;68830;47.566;19.012;2023-05-10T11:08:42;100053.31;;;18.69;43.38
79362;BME280;68830;47.566;19.012;2023-05-10T11:11:52;100040.31;;;18.73;42.75
79362;BME280;68830;47.566;19.012;2023-05-10T11:14:58;100039.09;;;18.13;44.27
79362;BME280;68830;47.566;19.012;2023-05-10T11:18:16;100047.56;;;17.88;44.82
79362;BME280;68830;47.566;19.012;2023-05-10T11:21:19;100041.72;;;18.06;43.73
79362;BME280;68830;47.566;19.012;2023-05-10T11:24:22;100015.75;;;17.79;44.15
79362;BME280;68830;47.566;19.012;2023-05-10T11:27:24;99987.59;;;17.89;43.76
79362;BME280;68830;47.566;19.012;2023-05-10T11:30:29;100030.03;;;18.14;43.72
79362;BME280;68830;47.566;19.012;2023-05-10T11:33:42;100031.59;;;18.02;44.10
79362;BME280;68830;47.566;19.012;2023-05-10T11:36:51;100035.91;;;18.03;44.05
79362;BME280;68830;47.566;19.012;2023-05-10T11:39:54;100017.66;;;17.85;45.21
79362;BME280;68830;47.566;19.012;2023-05-10T11:42:56;100021.16;;;17.85;45.06
79362;BME280;68830;47.566;19.012;2023-05-10T11:46:00;100023.94;;;17.99;44.80
79362;BME280;68830;47.566;19.012;2023-05-10T11:49:02;100023.69;;;17.94;45.42
79362;BME280;68830;47.566;19.012;2023-05-10T11:52:06;100023.44;;;17.88;45.57
79362;BME280;68830;47.566;19.012;2023-05-10T11:55:09;100020.53;;;17.83;44.23
79362;BME280;68830;47.566;19.012;2023-05-10T11:58:11;100016.38;;;17.81;44.65
79362;BME280;68830;47.566;19.012;2023-05-10T12:01:14;100020.34;;;17.63;44.36
79362;BME280;68830;47.566;19.012;2023-05-10T12:04:16;100015.50;;;17.74;43.44
79362;BME280;68830;47.566;19.012;2023-05-10T12:07:19;100023.31;;;17.75;44.25
79362;BME280;68830;47.566;19.012;2023-05-10T12:10:26;100019.00;;;17.74;44.29
79362;BME280;68830;47.566;19.012;2023-05-10T12:13:28;100019.25;;;17.79;43.94
79362;BME280;68830;47.566;19.012;2023-05-10T12:16:32;100010.19;;;17.80;44.81
79362;BME280;68830;47.566;19.012;2023-05-10T12:19:37;100022.91;;;18.00;44.27
79362;BME280;68830;47.566;19.012;2023-05-10T12:22:40;100002.00;;;17.88;44.55
79362;BME280;68830;47.566;19.012;2023-05-10T12:25:42;100021.38;;;18.18;45.07
79362;BME280;68830;47.566;19.012;2023-05-10T12:28:44;100016.19;;;18.38;42.42
79362;BME280;68830;47.566;19.012;2023-05-10T12:31:53;100019.69;;;18.39;43.44
79362;BME280;68830;47.566;19.012;2023-05-10T12:34:57;99923.88;;;17.85;42.54
79362;BME280;68830;47.566;19.012;2023-05-10T12:37:59;99999.56;;;18.63;42.37
79362;BME280;68830;47.566;19.012;2023-05-10T12:41:03;100003.84;;;18.85;41.91
79362;BME280;68830;47.566;19.012;2023-05-10T12:44:05;100000.69;;;18.81;41.71
79362;BME280;68830;47.566;19.012;2023-05-10T12:47:09;99982.72;;;18.69;41.42
79362;BME280;68830;47.566;19.012;2023-05-10T12:50:12;99986.16;;;18.63;42.45
79362;BME280;68830;47.566;19.012;2023-05-10T12:53:15;99978.66;;;18.51;42.39
79362;BME280;68830;47.566;19.012;2023-05-10T12:56:17;99989.59;;;18.50;42.65
79362;BME280;68830;47.566;19.012;2023-05-10T12:59:19;99976.13;;;18.71;42.09
79362;BME280;68830;47.566;19.012;2023-05-10T13:02:22;99973.78;;;19.23;40.73
79362;BME280;68830;47.566;19.012;2023-05-10T13:05:25;99969.28;;;19.96;41.55
79362;BME280;68830;47.566;19.012;2023-05-10T13:08:27;99962.22;;;20.02;40.59
79362;BME280;68830;47.566;19.012;2023-05-10T13:11:31;99976.34;;;18.76;40.07
79362;BME280;68830;47.566;19.012;2023-05-10T13:14:33;99973.88;;;18.75;41.38
79362;BME280;68830;47.566;19.012;2023-05-10T13:17:36;99973.28;;;18.86;41.79
79362;BME280;68830;47.566;19.012;2023-05-10T13:20:41;99965.50;;;19.11;41.95
79362;BME280;68830;47.566;19.012;2023-05-10T13:23:44;99963.66;;;19.25;40.26
79362;BME280;68830;47.566;19.012;2023-05-10T13:26:46;99950.66;;;19.22;41.02
79362;BME280;68830;47.566;19.012;2023-05-10T13:29:48;99950.78;;;18.87;41.18
79362;BME280;68830;47.566;19.012;2023-05-10T13:32:51;99942.53;;;18.89;40.63
79362;BME280;68830;47.566;19.012;2023-05-10T13:35:54;99935.44;;;18.68;40.44
79362;BME280;68830;47.566;19.012;2023-05-10T13:38:56;99944.56;;;18.73;41.04
79362;BME280;68830;47.566;19.012;2023-05-10T13:41:58;99941.78;;;18.54;41.66
79362;BME280;68830;47.566;19.012;2023-05-10T13:45:00;99923.56;;;19.03;40.54
79362;BME280;68830;47.566;19.012;2023-05-10T13:48:05;99923.97;;;19.07;40.54
79362;BME280;68830;47.566;19.012;2023-05-10T13:51:08;99928.06;;;18.83;40.75
79362;BME280;68830;47.566;19.012;2023-05-10T13:54:10;99910.84;;;18.58;41.29
79362;BME280;68830;47.566;19.012;2023-05-10T13:57:14;99932.50;;;18.56;41.78
79362;BME280;68830;47.566;19.012;2023-05-10T14:00:18;99915.00;;;18.67;40.81
79362;BME280;68830;47.566;19.012;2023-05-10T14:03:21;99920.25;;;18.95;41.12
79362;BME280;68830;47.566;19.012;2023-05-10T14:06:24;99914.97;;;19.61;39.56
79362;BME280;68830;47.566;19.012;2023-05-10T14:09:26;99897.34;;;19.78;37.89
79362;BME280;68830;47.566;19.012;2023-05-10T14:12:27;99913.19;;;20.13;38.02
79362;BME280;68830;47.566;19.012;2023-05-10T14:15:29;99913.16;;;20.19;37.10
79362;BME280;68830;47.566;19.012;2023-05-10T14:18:32;99886.81;;;19.77;37.99
79362;BME280;68830;47.566;19.012;2023-05-10T14:21:35;99900.84;;;19.92;37.46
79362;BME280;68830;47.566;19.012;2023-05-10T14:24:37;99902.50;;;19.53;38.39
79362;BME280;68830;47.566;19.012;2023-05-10T14:27:40;99871.75;;;19.49;38.45
79362;BME280;68830;47.566;19.012;2023-05-10T14:30:42;99906.84;;;19.74;38.82
79362;BME280;68830;47.566;19.012;2023-05-10T14:33:45;99898.41;;;19.31;38.77
79362;BME280;68830;47.566;19.012;2023-05-10T14:36:47;99894.66;;;19.52;38.64
79362;BME280;68830;47.566;19.012;2023-05-10T14:39:50;99873.19;;;19.45;38.05
79362;BME280;68830;47.566;19.012;2023-05-10T14:42:52;99893.66;;;19.46;38.30
79362;BME280;68830;47.566;19.012;2023-05-10T14:45:55;99883.31;;;19.36;38.42
79362;BME280;68830;47.566;19.012;2023-05-10T14:48:58;99897.97;;;19.54;37.96
79362;BME280;68830;47.566;19.012;2023-05-10T14:52:00;99885.16;;;19.03;37.13
79362;BME280;68830;47.566;19.012;2023-05-10T14:55:03;99884.53;;;18.94;39.88
79362;BME280;68830;47.566;19.012;2023-05-10T14:58:05;99906.81;;;18.95;40.57
79362;BME280;68830;47.566;19.012;2023-05-10T15:01:07;99889.91;;;19.01;40.15
79362;BME280;68830;47.566;19.012;2023-05-10T15:04:11;99900.44;;;18.89;39.95
79362;BME280;68830;47.566;19.012;2023-05-10T15:07:15;99891.78;;;19.07;39.06
79362;BME280;68830;47.566;19.012;2023-05-10T15:10:19;99903.75;;;19.04;39.78
79362;BME280;68830;47.566;19.012;2023-05-10T15:13:21;99889.66;;;18.76;40.24
79362;BME280;68830;47.566;19.012;2023-05-10T15:16:23;99890.44;;;18.63;40.61
79362;BME280;68830;47.566;19.012;2023-05-10T15:19:26;99906.47;;;18.43;40.76
79362;BME280;68830;47.566;19.012;2023-05-10T15:22:29;99907.28;;;18.44;40.49
79362;BME280;68830;47.566;19.012;2023-05-10T15:25:34;99904.53;;;18.31;39.44
79362;BME280;68830;47.566;19.012;2023-05-10T15:28:37;99904.31;;;18.26;39.49
79362;BME280;68830;47.566;19.012;2023-05-10T15:31:38;99906.34;;;18.17;38.83
79362;BME280;68830;47.566;19.012;2023-05-10T15:34:43;99910.44;;;18.13;38.38
79362;BME280;68830;47.566;19.012;2023-05-10T15:37:46;99907.72;;;18.06;38.42
79362;BME280;68830;47.566;19.012;2023-05-10T15:40:48;99896.56;;;18.03;39.74
79362;BME280;68830;47.566;19.012;2023-05-10T15:43:51;99895.75;;;18.02;39.31
79362;BME280;68830;47.566;19.012;2023-05-10T15:46:52;99894.16;;;18.14;38.92
79362;BME280;68830;47.566;19.012;2023-05-10T15:49:56;99900.69;;;17.99;40.47
79362;BME280;68830;47.566;19.012;2023-05-10T15:52:58;99824.97;;;17.55;40.79